createdAt,value
2022-09-22T00:01:44.964Z,13.2
2022-09-22T00:06:44.924Z,13.1
2022-09-22T00:11:44.933Z,13.1
2022-09-22T00:16:45.178Z,13.1
2022-09-22T00:21:44.946Z,13.1
2022-09-22T00:26:44.928Z,13
2022-09-22T00:31:45.064Z,12.9
2022-09-22T00:36:44.922Z,12.9
2022-09-22T00:41:44.945Z,12.9
2022-09-22T00:46:44.959Z,12.8
2022-09-22T00:51:44.968Z,12.8
2022-09-22T00:56:44.936Z,12.8
2022-09-22T01:01:44.987Z,12.7
2022-09-22T01:06:44.921Z,12.6
2022-09-22T01:11:44.977Z,12.6
2022-09-22T01:16:44.924Z,12.6
2022-09-22T01:21:44.937Z,12.5
2022-09-22T01:26:44.990Z,12.4
2022-09-22T01:31:45.041Z,12.4
2022-09-22T01:36:44.926Z,12.4
2022-09-22T01:41:44.950Z,12.3
2022-09-22T01:46:45.016Z,12.3
2022-09-22T01:51:44.970Z,12.3
2022-09-22T01:56:44.933Z,12.2
2022-09-22T02:01:45.058Z,12.1
2022-09-22T02:06:44.935Z,12.1
2022-09-22T02:11:45.000Z,12.1
2022-09-22T02:16:44.933Z,12
2022-09-22T02:21:44.951Z,11.9
2022-09-22T02:26:45.020Z,11.9
2022-09-22T02:31:45.098Z,11.9
2022-09-22T02:36:44.951Z,11.8
2022-09-22T02:41:44.976Z,11.8
2022-09-22T02:46:44.989Z,11.7
2022-09-22T02:51:44.976Z,11.7
2022-09-22T02:56:44.947Z,11.6
2022-09-22T03:01:45.023Z,11.6
2022-09-22T03:06:44.945Z,11.6
2022-09-22T03:11:44.978Z,11.5
2022-09-22T03:16:44.944Z,11.4
2022-09-22T03:21:44.949Z,11.4
2022-09-22T03:26:45.219Z,11.4
2022-09-22T03:31:45.017Z,11.3
2022-09-22T03:36:44.994Z,11.3
2022-09-22T03:41:44.991Z,11.3
2022-09-22T03:46:44.994Z,11.2
2022-09-22T03:51:45.023Z,11.1
2022-09-22T03:56:44.986Z,11.1
2022-09-22T04:01:45.032Z,11.1
2022-09-22T04:06:44.984Z,11
2022-09-22T04:11:45.018Z,10.9
2022-09-22T04:16:45.013Z,10.9
2022-09-22T04:21:44.994Z,10.9
2022-09-22T04:27:02.100Z,10.8
2022-09-22T04:31:45.185Z,10.8
2022-09-22T04:36:45.196Z,10.8
2022-09-22T04:41:45.209Z,10.7
2022-09-22T04:46:45.222Z,10.6
2022-09-22T04:51:45.311Z,10.6
2022-09-22T04:56:45.263Z,10.6
2022-09-22T05:01:45.399Z,10.5
2022-09-22T05:06:45.373Z,10.4
2022-09-22T05:11:45.426Z,10.4
2022-09-22T05:16:45.462Z,10.4
2022-09-22T05:21:45.403Z,10.4
2022-09-22T05:26:45.691Z,10.4
2022-09-22T05:31:45.514Z,10.4
2022-09-22T05:36:45.413Z,10.3
2022-09-22T05:41:45.451Z,10.3
2022-09-22T05:46:45.466Z,10.3
2022-09-22T05:51:45.442Z,10.3
2022-09-22T05:56:45.441Z,10.3
2022-09-22T06:01:45.532Z,10.3
2022-09-22T06:06:45.503Z,10.2
2022-09-22T06:11:45.489Z,10.3
2022-09-22T06:16:45.519Z,10.3
2022-09-22T06:21:45.527Z,10.3
2022-09-22T06:26:45.710Z,10.3
2022-09-22T06:31:45.821Z,10.3
2022-09-22T06:36:45.817Z,10.3
2022-09-22T06:41:45.692Z,10.3
2022-09-22T06:46:45.687Z,10.4
2022-09-22T06:51:45.666Z,10.4
2022-09-22T06:56:45.629Z,10.4
2022-09-22T07:01:45.791Z,10.5
2022-09-22T07:06:45.652Z,10.5
2022-09-22T07:11:45.660Z,10.6
2022-09-22T07:16:45.669Z,10.6
2022-09-22T07:21:45.648Z,10.7
2022-09-22T07:26:45.681Z,10.8
2022-09-22T07:31:45.749Z,10.8
2022-09-22T07:36:45.632Z,10.9
2022-09-22T07:41:45.643Z,10.9
2022-09-22T07:46:45.707Z,11
2022-09-22T07:51:45.653Z,11.1
2022-09-22T07:56:45.639Z,11.2
2022-09-22T08:01:45.664Z,11.3
2022-09-22T08:06:45.630Z,11.4
2022-09-22T08:11:45.657Z,11.4
2022-09-22T08:16:45.636Z,11.5
2022-09-22T08:21:49.056Z,11.6
2022-09-22T08:26:48.199Z,11.8
2022-09-22T08:31:45.814Z,11.8
2022-09-22T08:36:45.810Z,11.9
2022-09-22T08:41:45.962Z,12
2022-09-22T08:46:46.042Z,12.1
2022-09-22T08:51:46.063Z,12.3
2022-09-22T08:56:46.025Z,12.4
2022-09-22T09:01:46.117Z,12.4
2022-09-22T09:06:46.020Z,12.6
2022-09-22T09:11:46.062Z,12.7
2022-09-22T09:16:46.048Z,12.8
2022-09-22T09:21:45.957Z,12.9
2022-09-22T09:26:46.068Z,13.1
2022-09-22T09:31:45.949Z,13.2
2022-09-22T09:36:45.906Z,13.3
2022-09-22T09:41:45.909Z,13.4
2022-09-22T09:46:45.987Z,13.6
2022-09-22T09:51:45.934Z,13.7
2022-09-22T09:56:45.911Z,13.9
2022-09-22T10:01:45.976Z,14
2022-09-22T10:06:45.919Z,14.1
2022-09-22T10:11:45.910Z,14.3
2022-09-22T10:16:45.892Z,14.4
2022-09-22T10:21:45.958Z,14.6
2022-09-22T10:26:46.157Z,14.7
2022-09-22T10:31:45.955Z,14.8
2022-09-22T10:36:45.920Z,15
2022-09-22T10:41:45.907Z,15.1
2022-09-22T10:46:45.956Z,15.3
2022-09-22T10:51:45.931Z,15.4
2022-09-22T10:56:45.904Z,15.5
2022-09-22T11:01:45.968Z,15.6
2022-09-22T11:06:45.893Z,15.8
2022-09-22T11:11:45.938Z,15.9
2022-09-22T11:16:45.899Z,16.1
2022-09-22T11:21:45.905Z,16.3
2022-09-22T11:26:45.889Z,16.4
2022-09-22T11:31:45.933Z,16.6
2022-09-22T11:36:50.781Z,16.8
2022-09-22T11:41:45.904Z,16.9
2022-09-22T11:46:45.908Z,17.1
2022-09-22T11:51:45.917Z,17.2
2022-09-22T11:56:45.896Z,17.4
2022-09-22T12:01:45.881Z,17.5
2022-09-22T12:06:45.892Z,17.6
2022-09-22T12:11:45.922Z,17.8
2022-09-22T12:16:45.893Z,17.9
2022-09-22T12:21:45.897Z,18.1
2022-09-22T12:26:45.895Z,18.3
2022-09-22T12:31:45.913Z,18.4
2022-09-22T12:36:45.875Z,18.6
2022-09-22T12:41:45.872Z,18.8
2022-09-22T12:46:45.876Z,18.9
2022-09-22T12:51:45.895Z,19
2022-09-22T12:56:45.895Z,19.1
2022-09-22T13:01:45.913Z,19.3
2022-09-22T13:06:45.869Z,19.4
2022-09-22T13:11:45.897Z,19.6
2022-09-22T13:16:45.902Z,19.8
2022-09-22T13:21:45.873Z,19.9
2022-09-22T13:26:45.871Z,20.1
2022-09-22T13:31:45.886Z,20.3
2022-09-22T13:36:45.881Z,20.4
2022-09-22T13:41:45.867Z,20.6
2022-09-22T13:46:45.855Z,20.8
2022-09-22T13:51:45.874Z,20.9
2022-09-22T13:56:45.857Z,21.1
2022-09-22T14:01:45.911Z,21.2
2022-09-22T14:06:45.855Z,21.3
2022-09-22T14:11:45.879Z,21.4
2022-09-22T14:16:45.920Z,21.4
2022-09-22T14:21:45.874Z,21.5
2022-09-22T14:26:45.848Z,21.6
2022-09-22T14:31:45.962Z,21.8
2022-09-22T14:36:45.844Z,21.9
2022-09-22T14:41:45.849Z,22.1
2022-09-22T14:46:45.854Z,22.2
2022-09-22T14:51:45.885Z,22.3
2022-09-22T14:56:45.844Z,22.4
2022-09-22T15:01:45.857Z,22.6
2022-09-22T15:06:45.648Z,22.8
2022-09-22T15:11:45.726Z,22.9
2022-09-22T15:16:45.703Z,23.1
2022-09-22T15:21:45.634Z,23.3
2022-09-22T15:26:45.656Z,23.4
2022-09-22T15:31:45.918Z,23.6
2022-09-22T15:36:45.644Z,23.8
2022-09-22T15:41:45.844Z,23.9
2022-09-22T15:46:45.845Z,24.1
2022-09-22T15:51:45.865Z,24.1
2022-09-22T15:56:45.836Z,24.2
2022-09-22T16:01:45.847Z,24.2
2022-09-22T16:06:45.858Z,24.2
2022-09-22T16:11:45.863Z,24.1
2022-09-22T16:16:45.839Z,24.1
2022-09-22T16:21:45.847Z,24
2022-09-22T16:26:45.852Z,23.9
2022-09-22T16:31:45.944Z,23.8
2022-09-22T16:36:45.845Z,23.6
2022-09-22T16:41:45.849Z,23.5
2022-09-22T16:46:45.868Z,23.3
2022-09-22T16:51:45.853Z,23.2
2022-09-22T16:56:45.838Z,23
2022-09-22T17:01:45.906Z,22.9
2022-09-22T17:06:45.853Z,22.7
2022-09-22T17:12:55.626Z,22.5
2022-09-22T17:21:56.808Z,22.1
2022-09-22T17:33:43.474Z,21.8
2022-09-22T18:09:11.897Z,20.4
2022-09-22T18:22:50.788Z,19.8
2022-09-22T18:49:47.030Z,18.8
2022-09-22T18:54:47.019Z,18.6
